createdAt,value
2016-12-10T00:00:09.290Z,0
2016-12-10T00:01:09.387Z,0
2016-12-10T00:02:09.270Z,0
2016-12-10T00:03:09.263Z,0
2016-12-10T00:04:09.220Z,0
2016-12-10T00:05:10.277Z,0
2016-12-10T00:06:09.260Z,0
2016-12-10T00:07:09.175Z,0
2016-12-10T00:08:10.171Z,0
2016-12-10T00:09:09.172Z,0
2016-12-10T00:10:09.169Z,0
2016-12-10T00:11:10.200Z,0
2016-12-10T00:12:09.152Z,0
2016-12-10T00:13:09.078Z,0
2016-12-10T00:14:09.101Z,0
2016-12-10T00:15:09.892Z,0
2016-12-10T00:16:08.813Z,0
2016-12-10T00:17:08.804Z,0
2016-12-10T00:18:09.266Z,0
2016-12-10T00:19:09.028Z,0
2016-12-10T00:20:09.081Z,0
2016-12-10T00:21:09.473Z,0
2016-12-10T00:22:08.737Z,0
2016-12-10T00:23:08.724Z,0
2016-12-10T00:24:09.289Z,0
2016-12-10T00:25:08.920Z,0
2016-12-10T00:26:08.686Z,0
2016-12-10T00:27:08.694Z,0
2016-12-10T00:28:09.885Z,0
2016-12-10T00:29:08.649Z,0
2016-12-10T00:30:08.656Z,0
2016-12-10T00:31:08.623Z,0
2016-12-10T00:32:08.606Z,0
2016-12-10T00:33:08.599Z,0
2016-12-10T00:34:08.584Z,0
2016-12-10T00:35:08.576Z,0
2016-12-10T00:36:08.568Z,0
2016-12-10T00:37:08.547Z,0
2016-12-10T00:38:08.535Z,0
2016-12-10T00:39:08.519Z,0
2016-12-10T00:40:08.843Z,0
2016-12-10T00:41:08.500Z,0
2016-12-10T00:42:08.488Z,0
2016-12-10T00:43:08.478Z,0
2016-12-10T00:44:08.460Z,0
2016-12-10T00:45:08.446Z,0
2016-12-10T00:46:08.435Z,0
2016-12-10T00:47:08.426Z,0
2016-12-10T00:48:08.412Z,0
2016-12-10T00:49:08.395Z,0
2016-12-10T00:50:08.390Z,0
2016-12-10T00:51:08.374Z,0
2016-12-10T00:52:08.365Z,0
2016-12-10T00:53:08.350Z,0
2016-12-10T00:54:08.336Z,0
2016-12-10T00:55:08.328Z,0
2016-12-10T00:56:08.313Z,0
2016-12-10T00:57:08.296Z,0
2016-12-10T00:58:08.296Z,0
2016-12-10T00:59:08.280Z,0
2016-12-10T01:00:08.267Z,0
2016-12-10T01:01:08.254Z,0
2016-12-10T01:02:08.244Z,0
2016-12-10T01:03:08.230Z,0
2016-12-10T01:04:08.216Z,0
2016-12-10T01:05:08.206Z,0
2016-12-10T01:06:08.193Z,0
2016-12-10T01:07:08.185Z,0
2016-12-10T01:08:08.174Z,0
2016-12-10T01:09:08.159Z,0
2016-12-10T01:10:08.145Z,0
2016-12-10T01:11:08.132Z,0
2016-12-10T01:12:08.150Z,0
2016-12-10T01:13:08.112Z,0
2016-12-10T01:14:08.093Z,0
2016-12-10T01:15:08.083Z,0
2016-12-10T01:16:08.082Z,0
2016-12-10T01:17:08.058Z,0
2016-12-10T01:18:08.046Z,0
2016-12-10T01:19:08.035Z,0
2016-12-10T01:20:08.020Z,0
2016-12-10T01:21:08.336Z,0
2016-12-10T01:22:07.997Z,0
2016-12-10T01:23:07.986Z,0
2016-12-10T01:24:07.983Z,0
2016-12-10T01:25:07.961Z,0
2016-12-10T01:26:07.946Z,0
2016-12-10T01:27:08.249Z,0
2016-12-10T01:28:07.923Z,0
2016-12-10T01:29:07.935Z,0
2016-12-10T01:30:07.903Z,0
2016-12-10T01:31:07.892Z,0
2016-12-10T01:32:07.897Z,0
2016-12-10T01:33:07.859Z,0
2016-12-10T01:34:07.858Z,0
2016-12-10T01:35:07.836Z,0
2016-12-10T01:36:07.823Z,0
2016-12-10T01:37:07.815Z,0
2016-12-10T01:38:07.794Z,0
2016-12-10T01:39:07.786Z,0
2016-12-10T01:40:07.775Z,0
2016-12-10T01:41:07.778Z,0
2016-12-10T01:42:07.756Z,0
2016-12-10T01:43:07.737Z,0
2016-12-10T01:44:07.728Z,0
2016-12-10T01:45:07.710Z,0
2016-12-10T01:46:07.701Z,0
2016-12-10T01:47:07.686Z,0
2016-12-10T01:48:07.674Z,0
2016-12-10T01:49:07.663Z,0
2016-12-10T01:50:07.648Z,0
2016-12-10T01:51:07.636Z,0
2016-12-10T01:52:07.616Z,0
2016-12-10T01:53:07.608Z,0
2016-12-10T01:54:07.594Z,0
2016-12-10T01:55:07.584Z,0
2016-12-10T01:56:07.579Z,0
2016-12-10T01:57:07.557Z,0
2016-12-10T01:58:07.550Z,0
2016-12-10T01:59:07.533Z,0
2016-12-10T02:00:07.528Z,0
2016-12-10T02:01:07.505Z,0
2016-12-10T02:02:07.494Z,0
2016-12-10T02:03:07.479Z,0
2016-12-10T02:04:07.464Z,0
2016-12-10T02:05:07.458Z,0
2016-12-10T02:06:07.449Z,0
2016-12-10T02:07:07.747Z,0
2016-12-10T02:08:07.430Z,0
2016-12-10T02:09:07.407Z,0
2016-12-10T02:10:07.394Z,0
2016-12-10T02:11:07.377Z,0
2016-12-10T02:12:07.364Z,0
2016-12-10T02:13:07.377Z,0
2016-12-10T02:14:07.339Z,0
2016-12-10T02:15:07.328Z,0
2016-12-10T02:16:07.316Z,0
2016-12-10T02:17:07.308Z,0
2016-12-10T02:18:07.288Z,0
2016-12-10T02:19:07.284Z,0
2016-12-10T02:20:07.261Z,0
2016-12-10T02:21:07.248Z,0
2016-12-10T02:22:07.239Z,0
2016-12-10T02:23:07.226Z,0
2016-12-10T02:24:07.221Z,0
2016-12-10T02:25:07.516Z,0
2016-12-10T02:26:07.189Z,0
2016-12-10T02:27:07.173Z,0
2016-12-10T02:28:07.162Z,0
2016-12-10T02:29:07.146Z,0
2016-12-10T02:30:07.134Z,0
2016-12-10T02:31:07.119Z,0
2016-12-10T02:32:07.109Z,0
2016-12-10T02:33:07.099Z,0
2016-12-10T02:34:07.089Z,0
2016-12-10T02:35:07.074Z,0
2016-12-10T02:36:07.054Z,0
2016-12-10T02:37:07.046Z,0
2016-12-10T02:38:07.032Z,0
2016-12-10T02:39:07.021Z,0
2016-12-10T02:40:07.007Z,0
2016-12-10T02:41:06.997Z,0
2016-12-10T02:42:06.990Z,0
2016-12-10T02:43:06.974Z,0
2016-12-10T02:44:06.950Z,0
2016-12-10T02:45:06.942Z,0
2016-12-10T02:46:06.932Z,0
2016-12-10T02:47:06.929Z,0
2016-12-10T02:48:07.218Z,0
2016-12-10T02:49:06.927Z,0
2016-12-10T02:50:06.880Z,0
2016-12-10T02:51:06.869Z,0
2016-12-10T02:52:06.861Z,0
2016-12-10T02:53:07.118Z,0
2016-12-10T02:54:07.462Z,0
2016-12-10T02:55:06.823Z,0
2016-12-10T02:56:06.810Z,0
2016-12-10T02:57:06.800Z,0
2016-12-10T02:58:06.811Z,0
2016-12-10T02:59:06.811Z,0
2016-12-10T03:00:06.758Z,0
2016-12-10T03:01:06.748Z,0
2016-12-10T03:02:06.730Z,0
2016-12-10T03:03:06.719Z,0
2016-12-10T03:04:06.702Z,0
2016-12-10T03:05:06.692Z,0
2016-12-10T03:06:06.682Z,0
2016-12-10T03:07:06.668Z,0
2016-12-10T03:08:06.666Z,0
2016-12-10T03:09:06.652Z,0
2016-12-10T03:10:06.627Z,0
2016-12-10T03:11:06.617Z,0
2016-12-10T03:12:06.607Z,0
2016-12-10T03:13:06.597Z,0
2016-12-10T03:14:06.579Z,0
2016-12-10T03:15:06.569Z,0
2016-12-10T03:16:06.572Z,0
2016-12-10T03:17:06.538Z,0
2016-12-10T03:18:06.529Z,0
2016-12-10T03:19:06.515Z,0
2016-12-10T03:20:06.558Z,0
2016-12-10T03:21:06.488Z,0
2016-12-10T03:22:06.486Z,0
2016-12-10T03:23:06.754Z,0
2016-12-10T03:24:06.459Z,0
2016-12-10T03:25:06.755Z,0
2016-12-10T03:26:06.426Z,0
2016-12-10T03:27:06.433Z,0
2016-12-10T03:28:06.481Z,0
2016-12-10T03:29:06.389Z,0
2016-12-10T03:30:06.381Z,0
2016-12-10T03:31:06.363Z,0
2016-12-10T03:32:06.829Z,0
2016-12-10T03:33:06.339Z,0
2016-12-10T03:34:06.338Z,0
2016-12-10T03:35:06.320Z,0
2016-12-10T03:36:06.304Z,0
2016-12-10T03:37:06.291Z,0
2016-12-10T03:38:06.276Z,0
2016-12-10T03:39:06.266Z,0
2016-12-10T03:40:06.572Z,0
2016-12-10T03:41:06.242Z,0
2016-12-10T03:42:06.231Z,0
2016-12-10T03:43:06.236Z,0
2016-12-10T03:44:06.207Z,0
2016-12-10T03:45:06.201Z,0
2016-12-10T03:46:06.176Z,0
2016-12-10T03:47:06.160Z,0
2016-12-10T03:48:06.156Z,0
2016-12-10T03:49:06.140Z,0
2016-12-10T03:50:06.127Z,0
2016-12-10T03:51:06.111Z,0
2016-12-10T03:52:06.101Z,0
2016-12-10T03:53:06.401Z,0
2016-12-10T03:54:06.076Z,0
2016-12-10T03:55:06.213Z,0
2016-12-10T03:56:06.048Z,0
2016-12-10T03:57:06.041Z,0
2016-12-10T03:58:06.037Z,0
2016-12-10T03:59:06.008Z,0
2016-12-10T04:00:06.001Z,0
2016-12-10T04:01:05.984Z,0
2016-12-10T04:02:06.003Z,0
2016-12-10T04:03:05.960Z,0
2016-12-10T04:04:05.946Z,0
2016-12-10T04:05:05.933Z,0
2016-12-10T04:06:05.922Z,0
2016-12-10T04:07:05.906Z,0
2016-12-10T04:08:05.896Z,0
2016-12-10T04:09:06.197Z,0
2016-12-10T04:10:05.866Z,0
2016-12-10T04:11:05.868Z,0
2016-12-10T04:12:05.843Z,0
2016-12-10T04:13:05.836Z,0
2016-12-10T04:14:06.131Z,0
2016-12-10T04:15:05.807Z,0
2016-12-10T04:16:05.788Z,0
2016-12-10T04:17:05.780Z,0
2016-12-10T04:18:05.762Z,0
2016-12-10T04:19:05.760Z,0
2016-12-10T04:20:05.737Z,0
2016-12-10T04:21:05.726Z,0
2016-12-10T04:22:05.712Z,0
2016-12-10T04:23:05.700Z,0
2016-12-10T04:24:05.692Z,0
2016-12-10T04:25:05.700Z,0
2016-12-10T04:26:05.662Z,0
2016-12-10T04:27:05.648Z,0
2016-12-10T04:28:05.639Z,0
2016-12-10T04:29:05.625Z,0
2016-12-10T04:30:05.610Z,0
2016-12-10T04:31:05.601Z,0
2016-12-10T04:32:05.585Z,0
2016-12-10T04:33:05.574Z,0
2016-12-10T04:34:05.562Z,0
2016-12-10T04:35:05.548Z,0
2016-12-10T04:36:05.557Z,0
2016-12-10T04:37:05.519Z,0
2016-12-10T04:38:05.509Z,0
2016-12-10T04:39:05.504Z,0
2016-12-10T04:40:05.480Z,0
2016-12-10T04:41:05.471Z,0
2016-12-10T04:42:05.458Z,0
2016-12-10T04:43:05.454Z,0
2016-12-10T04:44:05.753Z,0
2016-12-10T04:45:05.422Z,0
2016-12-10T04:46:05.407Z,0
2016-12-10T04:47:05.389Z,0
2016-12-10T04:48:05.427Z,0
2016-12-10T04:49:05.360Z,0
2016-12-10T04:50:05.355Z,0
2016-12-10T04:51:05.341Z,0
2016-12-10T04:52:05.330Z,0
2016-12-10T04:53:05.344Z,0
2016-12-10T04:54:05.305Z,0
2016-12-10T04:55:05.289Z,0
2016-12-10T04:56:05.279Z,0
2016-12-10T04:57:05.262Z,0
2016-12-10T04:58:05.571Z,0
2016-12-10T04:59:05.235Z,0
2016-12-10T05:00:05.230Z,0
2016-12-10T05:01:05.210Z,0
2016-12-10T05:02:05.205Z,0
2016-12-10T05:03:05.193Z,0
2016-12-10T05:04:05.176Z,0
2016-12-10T05:05:05.163Z,0
2016-12-10T05:06:05.148Z,0
2016-12-10T05:07:05.147Z,0
2016-12-10T05:08:05.123Z,0
2016-12-10T05:09:05.109Z,0
2016-12-10T05:10:05.105Z,0
2016-12-10T05:11:05.088Z,0
2016-12-10T05:12:05.078Z,0
2016-12-10T05:13:05.061Z,0
2016-12-10T05:14:05.049Z,0
2016-12-10T05:15:05.041Z,0
2016-12-10T05:16:05.032Z,0
2016-12-10T05:17:05.008Z,0
2016-12-10T05:18:04.995Z,0
2016-12-10T05:19:04.987Z,0
2016-12-10T05:20:04.972Z,0
2016-12-10T05:21:04.991Z,0
2016-12-10T05:22:04.943Z,0
2016-12-10T05:23:04.949Z,0
2016-12-10T05:24:05.237Z,0
2016-12-10T05:25:04.910Z,0
2016-12-10T05:26:04.897Z,0
2016-12-10T05:27:04.887Z,0
2016-12-10T05:28:04.874Z,0
2016-12-10T05:29:04.862Z,0
2016-12-10T05:30:04.850Z,0
2016-12-10T05:31:04.825Z,0
2016-12-10T05:32:04.824Z,0
2016-12-10T05:33:04.808Z,0
2016-12-10T05:34:04.794Z,0
2016-12-10T05:35:05.094Z,0
2016-12-10T05:36:04.770Z,0
2016-12-10T05:37:04.762Z,0
2016-12-10T05:38:04.750Z,0
2016-12-10T05:39:04.731Z,0
2016-12-10T05:40:04.726Z,0
2016-12-10T05:41:04.704Z,0
2016-12-10T05:42:04.697Z,0
2016-12-10T05:43:04.683Z,0
2016-12-10T05:44:04.675Z,0
2016-12-10T05:45:04.658Z,0
2016-12-10T05:46:04.675Z,0
2016-12-10T05:47:04.630Z,0
2016-12-10T05:48:04.619Z,0
2016-12-10T05:49:04.636Z,0
2016-12-10T05:50:04.593Z,0
2016-12-10T05:51:04.585Z,0
2016-12-10T05:52:04.890Z,0
2016-12-10T05:53:04.554Z,0
2016-12-10T05:54:04.543Z,0
2016-12-10T05:55:04.534Z,0
2016-12-10T05:56:04.513Z,0
2016-12-10T05:57:04.503Z,0
2016-12-10T05:58:04.492Z,0
2016-12-10T05:59:04.482Z,0
2016-12-10T06:00:04.469Z,0
2016-12-10T06:01:04.462Z,0
2016-12-10T06:02:04.450Z,0
2016-12-10T06:03:04.431Z,0
2016-12-10T06:04:04.417Z,0
2016-12-10T06:05:04.434Z,0
2016-12-10T06:06:04.419Z,0
2016-12-10T06:07:04.375Z,0
2016-12-10T06:08:04.366Z,0
2016-12-10T06:09:04.358Z,0
2016-12-10T06:10:04.343Z,0
2016-12-10T06:11:04.788Z,0
2016-12-10T06:12:04.351Z,0
2016-12-10T06:13:04.311Z,0
2016-12-10T06:14:04.294Z,0
2016-12-10T06:15:04.280Z,0
2016-12-10T06:16:04.266Z,0
2016-12-10T06:17:04.260Z,0
2016-12-10T06:18:04.239Z,0
2016-12-10T06:19:04.228Z,0
2016-12-10T06:20:04.210Z,0
2016-12-10T06:21:04.202Z,0
2016-12-10T06:22:04.195Z,0
2016-12-10T06:23:04.180Z,0
2016-12-10T06:24:04.169Z,0
2016-12-10T06:25:04.154Z,0
2016-12-10T06:26:04.141Z,0
2016-12-10T06:27:04.131Z,0
2016-12-10T06:28:04.116Z,0
2016-12-10T06:29:04.100Z,0
2016-12-10T06:30:04.098Z,0
2016-12-10T06:31:04.096Z,0
2016-12-10T06:32:04.064Z,0
2016-12-10T06:33:04.073Z,0
2016-12-10T06:34:04.039Z,0
2016-12-10T06:35:04.307Z,0
2016-12-10T06:36:04.098Z,0
2016-12-10T06:37:04.001Z,0
2016-12-10T06:38:04.650Z,0
2016-12-10T06:39:03.981Z,0
2016-12-10T06:40:03.966Z,0
2016-12-10T06:41:03.953Z,0
2016-12-10T06:42:04.751Z,0
2016-12-10T06:43:03.942Z,0
2016-12-10T06:44:04.073Z,0
2016-12-10T06:45:03.894Z,0
2016-12-10T06:46:03.888Z,0
2016-12-10T06:47:03.872Z,0
2016-12-10T06:48:03.879Z,0
2016-12-10T06:49:03.849Z,0
2016-12-10T06:50:04.162Z,0
2016-12-10T06:51:03.836Z,0
2016-12-10T06:52:04.069Z,0
2016-12-10T06:53:03.794Z,0
2016-12-10T06:54:03.779Z,0
2016-12-10T06:55:03.778Z,0
2016-12-10T06:56:03.758Z,0
2016-12-10T06:57:03.754Z,0
2016-12-10T06:58:03.730Z,5
2016-12-10T06:59:03.843Z,5
2016-12-10T07:00:04.028Z,5
2016-12-10T07:01:03.973Z,5
2016-12-10T07:02:03.679Z,5
2016-12-10T07:03:03.675Z,5
2016-12-10T07:04:03.654Z,5
2016-12-10T07:05:03.643Z,5
2016-12-10T07:06:03.734Z,5
2016-12-10T07:07:03.622Z,5
2016-12-10T07:08:03.607Z,5
2016-12-10T07:09:03.597Z,10
2016-12-10T07:10:03.726Z,10
2016-12-10T07:11:03.568Z,10
2016-12-10T07:12:03.950Z,10
2016-12-10T07:13:03.590Z,10
2016-12-10T07:14:03.524Z,10
2016-12-10T07:15:03.515Z,10
2016-12-10T07:16:03.513Z,15
2016-12-10T07:17:03.492Z,15
2016-12-10T07:18:03.495Z,15
2016-12-10T07:19:03.774Z,15
2016-12-10T07:20:03.453Z,15
2016-12-10T07:21:03.433Z,15
2016-12-10T07:22:03.424Z,20
2016-12-10T07:23:03.419Z,20
2016-12-10T07:24:03.757Z,20
2016-12-10T07:25:03.642Z,20
2016-12-10T07:26:03.370Z,25
2016-12-10T07:27:03.364Z,25
2016-12-10T07:28:03.347Z,25
2016-12-10T07:29:03.333Z,25
2016-12-10T07:30:03.320Z,25
2016-12-10T07:31:03.580Z,30
2016-12-10T07:32:03.293Z,30
2016-12-10T07:33:03.283Z,30
2016-12-10T07:34:03.275Z,30
2016-12-10T07:35:03.421Z,30
2016-12-10T07:36:03.500Z,30
2016-12-10T07:37:03.233Z,30
2016-12-10T07:38:03.225Z,35
2016-12-10T07:39:03.208Z,35
2016-12-10T07:40:03.197Z,35
2016-12-10T07:41:03.316Z,35
2016-12-10T07:42:03.168Z,35
2016-12-10T07:43:03.159Z,35
2016-12-10T07:44:03.146Z,35
2016-12-10T07:45:03.128Z,35
2016-12-10T07:46:03.123Z,40
2016-12-10T07:47:03.108Z,40
2016-12-10T07:48:03.096Z,40
2016-12-10T07:49:03.395Z,40
2016-12-10T07:50:03.072Z,40
2016-12-10T07:51:03.054Z,40
2016-12-10T07:52:03.040Z,40
2016-12-10T07:53:03.028Z,40
2016-12-10T07:54:03.014Z,40
2016-12-10T07:55:03.007Z,40
2016-12-10T07:56:02.990Z,45
2016-12-10T07:57:02.976Z,45
2016-12-10T07:58:02.965Z,45
2016-12-10T07:59:03.012Z,45
2016-12-10T08:00:03.253Z,45
2016-12-10T08:01:02.929Z,45
2016-12-10T08:02:02.916Z,45
2016-12-10T08:03:02.910Z,50
2016-12-10T08:04:02.890Z,50
2016-12-10T08:05:02.877Z,50
2016-12-10T08:06:02.861Z,50
2016-12-10T08:07:02.853Z,55
2016-12-10T08:08:02.870Z,55
2016-12-10T08:09:02.829Z,55
2016-12-10T08:10:03.200Z,55
2016-12-10T08:11:03.255Z,55
2016-12-10T08:12:02.787Z,60
2016-12-10T08:13:02.780Z,60
2016-12-10T08:14:02.791Z,60
2016-12-10T08:15:02.750Z,60
2016-12-10T08:16:02.743Z,65
2016-12-10T08:17:02.733Z,65
2016-12-10T08:18:02.751Z,65
2016-12-10T08:19:03.021Z,65
2016-12-10T08:20:02.691Z,65
2016-12-10T08:21:02.681Z,70
2016-12-10T08:22:02.672Z,70
2016-12-10T08:23:02.981Z,70
2016-12-10T08:24:02.647Z,70
2016-12-10T08:25:02.688Z,75
2016-12-10T08:26:02.708Z,75
2016-12-10T08:27:02.714Z,75
2016-12-10T08:28:02.604Z,80
2016-12-10T08:29:02.581Z,80
2016-12-10T08:30:02.584Z,80
2016-12-10T08:31:02.587Z,80
2016-12-10T08:32:02.549Z,80
2016-12-10T08:33:02.542Z,85
2016-12-10T08:34:02.522Z,85
2016-12-10T08:35:02.670Z,85
2016-12-10T08:36:02.662Z,85
2016-12-10T08:37:02.487Z,85
2016-12-10T08:38:02.477Z,85
2016-12-10T08:39:02.793Z,85
2016-12-10T08:40:02.450Z,85
2016-12-10T08:41:02.441Z,90
2016-12-10T08:42:02.432Z,90
2016-12-10T08:43:02.411Z,90
2016-12-10T08:44:02.655Z,90
2016-12-10T08:45:02.397Z,90
2016-12-10T08:46:02.535Z,90
2016-12-10T08:47:02.370Z,90
2016-12-10T08:48:02.352Z,90
2016-12-10T08:49:02.346Z,90
2016-12-10T08:50:02.380Z,90
2016-12-10T08:51:02.540Z,85
2016-12-10T08:52:02.423Z,85
2016-12-10T08:53:02.296Z,85
2016-12-10T08:54:02.284Z,85
2016-12-10T08:55:02.275Z,85
2016-12-10T08:56:02.864Z,90
2016-12-10T08:57:02.361Z,90
2016-12-10T08:58:02.237Z,90
2016-12-10T08:59:02.222Z,90
2016-12-10T09:00:02.213Z,90
2016-12-10T09:01:02.206Z,90
2016-12-10T09:02:02.191Z,90
2016-12-10T09:03:02.179Z,90
2016-12-10T09:04:02.190Z,90
2016-12-10T09:05:02.157Z,90
2016-12-10T09:06:02.150Z,90
2016-12-10T09:07:02.139Z,90
2016-12-10T09:08:02.124Z,90
2016-12-10T09:09:02.108Z,90
2016-12-10T09:10:02.099Z,90
2016-12-10T09:11:02.102Z,95
2016-12-10T09:12:02.074Z,95
2016-12-10T09:13:02.070Z,95
2016-12-10T09:14:02.050Z,95
2016-12-10T09:15:02.044Z,95
2016-12-10T09:16:02.026Z,95
2016-12-10T09:17:02.020Z,95
2016-12-10T09:18:02.004Z,95
2016-12-10T09:19:01.992Z,90
2016-12-10T09:20:01.981Z,90
2016-12-10T09:21:01.980Z,90
2016-12-10T09:22:02.279Z,90
2016-12-10T09:23:01.949Z,90
2016-12-10T09:24:01.937Z,90
2016-12-10T09:25:01.924Z,90
2016-12-10T09:26:01.916Z,90
2016-12-10T09:27:01.904Z,90
2016-12-10T09:28:01.893Z,90
2016-12-10T09:29:01.878Z,90
2016-12-10T09:30:01.868Z,90
2016-12-10T09:31:01.853Z,90
2016-12-10T09:32:02.158Z,90
2016-12-10T09:33:01.832Z,90
2016-12-10T09:34:01.818Z,90
2016-12-10T09:35:01.844Z,90
2016-12-10T09:36:01.796Z,90
2016-12-10T09:37:01.784Z,95
2016-12-10T09:38:01.785Z,95
2016-12-10T09:39:01.758Z,95
2016-12-10T09:40:01.749Z,95
2016-12-10T09:41:01.743Z,95
2016-12-10T09:42:01.728Z,95
2016-12-10T09:43:01.712Z,95
2016-12-10T09:44:01.705Z,100
2016-12-10T09:45:01.692Z,100
2016-12-10T09:46:01.687Z,100
2016-12-10T09:47:01.670Z,100
2016-12-10T09:48:01.654Z,100
2016-12-10T09:49:01.647Z,100
2016-12-10T09:50:01.950Z,100
2016-12-10T09:51:01.626Z,100
2016-12-10T09:52:01.610Z,100
2016-12-10T09:53:01.929Z,100
2016-12-10T09:54:01.623Z,105
2016-12-10T09:55:01.583Z,105
2016-12-10T09:56:01.584Z,105
2016-12-10T09:57:01.554Z,105
2016-12-10T09:58:01.541Z,105
2016-12-10T09:59:01.535Z,105
2016-12-10T10:00:01.530Z,105
2016-12-10T10:01:01.509Z,105
2016-12-10T10:02:01.503Z,105
2016-12-10T10:03:01.490Z,105
2016-12-10T10:04:01.483Z,100
2016-12-10T10:05:01.464Z,100
2016-12-10T10:06:01.458Z,100
2016-12-10T10:07:01.443Z,100
2016-12-10T10:08:01.459Z,100
2016-12-10T10:09:01.417Z,95
2016-12-10T10:10:01.409Z,95
2016-12-10T10:11:01.398Z,95
2016-12-10T10:12:01.389Z,95
2016-12-10T10:13:01.376Z,100
2016-12-10T10:14:01.371Z,100
2016-12-10T10:15:01.352Z,100
2016-12-10T10:16:01.344Z,95
2016-12-10T10:17:01.327Z,95
2016-12-10T10:18:01.324Z,100
2016-12-10T10:19:01.310Z,95
2016-12-10T10:20:01.294Z,95
2016-12-10T10:21:01.288Z,95
2016-12-10T10:22:01.270Z,95
2016-12-10T10:23:01.259Z,95
2016-12-10T10:24:01.252Z,95
2016-12-10T10:25:01.240Z,95
2016-12-10T10:26:01.237Z,100
2016-12-10T10:27:01.221Z,100
2016-12-10T10:28:01.536Z,105
2016-12-10T10:29:01.195Z,110
2016-12-10T10:30:01.184Z,115
2016-12-10T10:31:01.171Z,120
2016-12-10T10:32:01.163Z,125
2016-12-10T10:33:01.152Z,135
2016-12-10T10:34:01.142Z,145
2016-12-10T10:35:01.130Z,150
2016-12-10T10:36:01.437Z,150
2016-12-10T10:37:01.109Z,155
2016-12-10T10:38:01.105Z,150
2016-12-10T10:39:01.087Z,145
2016-12-10T10:40:01.084Z,140
2016-12-10T10:41:01.067Z,135
2016-12-10T10:42:01.056Z,135
2016-12-10T10:43:01.045Z,130
2016-12-10T10:44:01.041Z,125
2016-12-10T10:45:01.021Z,120
2016-12-10T10:46:01.020Z,115
2016-12-10T10:47:01.004Z,115
2016-12-10T10:48:00.997Z,110
2016-12-10T10:49:00.983Z,110
2016-12-10T10:50:00.977Z,105
2016-12-10T10:51:00.963Z,100
2016-12-10T10:52:00.956Z,100
2016-12-10T10:53:00.951Z,100
2016-12-10T10:54:01.284Z,100
2016-12-10T10:55:00.921Z,105
2016-12-10T10:56:00.919Z,105
2016-12-10T10:57:00.906Z,110
2016-12-10T10:58:00.891Z,115
2016-12-10T10:59:00.886Z,120
2016-12-10T11:00:00.891Z,130
2016-12-10T11:01:00.866Z,130
2016-12-10T11:02:00.852Z,125
2016-12-10T11:03:00.844Z,125
2016-12-10T11:04:01.152Z,120
2016-12-10T11:05:00.821Z,115
2016-12-10T11:06:00.815Z,110
2016-12-10T11:07:00.806Z,105
2016-12-10T11:08:00.794Z,105
2016-12-10T11:09:00.781Z,100
2016-12-10T11:10:00.768Z,95
2016-12-10T11:11:00.756Z,95
2016-12-10T11:12:00.756Z,90
2016-12-10T11:13:00.743Z,90
2016-12-10T11:14:00.738Z,90
2016-12-10T11:15:00.722Z,90
2016-12-10T11:16:00.707Z,90
2016-12-10T11:17:00.701Z,90
2016-12-10T11:18:00.687Z,95
2016-12-10T11:19:00.680Z,95
2016-12-10T11:20:00.668Z,95
2016-12-10T11:21:00.659Z,95
2016-12-10T11:22:00.650Z,95
2016-12-10T11:23:00.638Z,95
2016-12-10T11:24:00.634Z,95
2016-12-10T11:25:00.628Z,95
2016-12-10T11:26:00.618Z,90
2016-12-10T11:27:00.605Z,90
2016-12-10T11:28:00.591Z,90
2016-12-10T11:29:00.581Z,90
2016-12-10T11:30:00.568Z,90
2016-12-10T11:31:00.565Z,90
2016-12-10T11:32:00.545Z,90
2016-12-10T11:33:00.536Z,90
2016-12-10T11:34:00.529Z,90
2016-12-10T11:35:00.520Z,90
2016-12-10T11:36:00.505Z,90
2016-12-10T11:37:00.524Z,90
2016-12-10T11:38:00.484Z,90
2016-12-10T11:39:00.474Z,90
2016-12-10T11:40:00.469Z,95
2016-12-10T11:41:00.453Z,95
2016-12-10T11:42:00.444Z,95
2016-12-10T11:43:00.436Z,95
2016-12-10T11:44:00.422Z,95
2016-12-10T11:45:00.416Z,100
2016-12-10T11:46:00.411Z,105
2016-12-10T11:47:00.395Z,105
2016-12-10T11:48:00.382Z,110
2016-12-10T11:49:00.403Z,110
2016-12-10T11:50:00.363Z,110
2016-12-10T11:51:00.354Z,110
2016-12-10T11:52:00.345Z,110
2016-12-10T11:53:00.337Z,105
2016-12-10T11:54:00.326Z,100
2016-12-10T11:55:00.337Z,100
2016-12-10T11:56:00.622Z,100
2016-12-10T11:57:00.293Z,95
2016-12-10T11:58:00.280Z,95
2016-12-10T11:59:00.277Z,90
2016-12-10T12:00:00.261Z,90
2016-12-10T12:01:00.247Z,90
2016-12-10T12:02:00.241Z,90
2016-12-10T12:03:00.232Z,95
2016-12-10T12:04:00.217Z,95
2016-12-10T12:05:00.215Z,95
2016-12-10T12:06:00.203Z,95
2016-12-10T12:07:00.190Z,100
2016-12-10T12:08:00.176Z,100
2016-12-10T12:09:00.167Z,100
2016-12-10T12:10:00.192Z,100
2016-12-10T12:11:00.179Z,95
2016-12-10T12:12:00.143Z,95
2016-12-10T12:13:00.129Z,95
2016-12-10T12:14:00.119Z,100
2016-12-10T12:15:00.109Z,100
2016-12-10T12:16:00.097Z,95
2016-12-10T12:17:00.088Z,95
2016-12-10T12:18:00.078Z,100
2016-12-10T12:19:00.068Z,100
2016-12-10T12:20:00.056Z,100
2016-12-10T12:21:00.065Z,100
2016-12-10T12:22:00.041Z,105
2016-12-10T12:23:00.343Z,105
2016-12-10T12:24:00.015Z,105
2016-12-10T12:25:00.006Z,105
2016-12-10T12:25:59.998Z,100
2016-12-10T12:26:59.992Z,100
2016-12-10T12:28:00.289Z,95
2016-12-10T12:28:59.964Z,100
2016-12-10T12:29:59.962Z,100
2016-12-10T12:30:59.951Z,105
2016-12-10T12:31:59.937Z,105
2016-12-10T12:32:59.936Z,105
2016-12-10T12:33:59.913Z,105
2016-12-10T12:34:59.905Z,105
2016-12-10T12:35:59.898Z,100
2016-12-10T12:36:59.884Z,105
2016-12-10T12:37:59.897Z,105
2016-12-10T12:38:59.865Z,105
2016-12-10T12:39:59.853Z,100
2016-12-10T12:40:59.842Z,100
2016-12-10T12:41:59.830Z,100
2016-12-10T12:42:59.821Z,100
2016-12-10T12:43:59.816Z,100
2016-12-10T12:44:59.798Z,100
2016-12-10T12:45:59.788Z,105
2016-12-10T12:46:59.787Z,100
2016-12-10T12:47:59.768Z,100
2016-12-10T12:48:59.757Z,100
2016-12-10T12:49:59.752Z,95
2016-12-10T12:50:59.740Z,90
2016-12-10T12:51:59.729Z,85
2016-12-10T12:52:59.719Z,85
2016-12-10T12:53:59.711Z,85
2016-12-10T12:54:59.698Z,90
2016-12-10T12:55:59.709Z,90
2016-12-10T12:56:59.678Z,90
2016-12-10T12:57:59.672Z,90
2016-12-10T12:58:59.661Z,85
2016-12-10T12:59:59.651Z,85
2016-12-10T13:00:59.637Z,85
2016-12-10T13:01:59.636Z,85
2016-12-10T13:02:59.619Z,85
2016-12-10T13:03:59.613Z,85
2016-12-10T13:04:59.610Z,85
2016-12-10T13:05:59.587Z,85
2016-12-10T13:06:59.582Z,85
2016-12-10T13:07:59.563Z,85
2016-12-10T13:08:59.553Z,85
2016-12-10T13:09:59.544Z,85
2016-12-10T13:10:59.535Z,85
2016-12-10T13:11:59.527Z,85
2016-12-10T13:12:59.514Z,85
2016-12-10T13:13:59.501Z,85
2016-12-10T13:14:59.494Z,85
2016-12-10T13:15:59.481Z,85
2016-12-10T13:16:59.471Z,80
2016-12-10T13:17:59.462Z,80
2016-12-10T13:18:59.453Z,75
2016-12-10T13:19:59.440Z,75
2016-12-10T13:20:59.425Z,75
2016-12-10T13:21:59.419Z,75
2016-12-10T13:22:59.412Z,75
2016-12-10T13:23:59.718Z,70
2016-12-10T13:24:59.422Z,75
2016-12-10T13:25:59.376Z,70
2016-12-10T13:26:59.372Z,70
2016-12-10T13:27:59.354Z,70
2016-12-10T13:28:59.348Z,70
2016-12-10T13:29:59.340Z,70
2016-12-10T13:30:59.329Z,70
2016-12-10T13:31:59.315Z,70
2016-12-10T13:32:59.622Z,70
2016-12-10T13:33:59.296Z,70
2016-12-10T13:34:59.299Z,70
2016-12-10T13:35:59.269Z,70
2016-12-10T13:36:59.296Z,70
2016-12-10T13:37:59.255Z,70
2016-12-10T13:38:59.554Z,70
2016-12-10T13:39:59.230Z,70
2016-12-10T13:40:59.220Z,70
2016-12-10T13:41:59.263Z,70
2016-12-10T13:42:59.201Z,65
2016-12-10T13:43:59.185Z,65
2016-12-10T13:44:59.180Z,65
2016-12-10T13:45:59.161Z,65
2016-12-10T13:46:59.153Z,65
2016-12-10T13:47:59.145Z,65
2016-12-10T13:48:59.131Z,65
2016-12-10T13:49:59.127Z,65
2016-12-10T13:50:59.119Z,65
2016-12-10T13:51:59.149Z,65
2016-12-10T13:52:59.091Z,65
2016-12-10T13:53:59.077Z,65
2016-12-10T13:54:59.076Z,65
2016-12-10T13:55:59.366Z,65
2016-12-10T13:56:59.073Z,65
2016-12-10T13:57:59.037Z,60
2016-12-10T13:58:59.026Z,60
2016-12-10T13:59:59.016Z,60
2016-12-10T14:00:59.010Z,60
2016-12-10T14:01:59.019Z,60
2016-12-10T14:02:58.980Z,60
2016-12-10T14:03:58.970Z,60
2016-12-10T14:04:58.962Z,60
2016-12-10T14:05:58.951Z,55
2016-12-10T14:06:58.943Z,55
2016-12-10T14:07:58.929Z,55
2016-12-10T14:08:58.917Z,55
2016-12-10T14:09:59.222Z,55
2016-12-10T14:10:58.897Z,55
2016-12-10T14:11:58.886Z,55
2016-12-10T14:12:58.866Z,55
2016-12-10T14:13:58.862Z,55
2016-12-10T14:14:58.850Z,55
2016-12-10T14:15:58.837Z,55
2016-12-10T14:16:59.141Z,55
2016-12-10T14:17:58.823Z,55
2016-12-10T14:18:58.803Z,55
2016-12-10T14:19:58.791Z,55
2016-12-10T14:20:58.784Z,55
2016-12-10T14:21:58.767Z,55
2016-12-10T14:22:58.759Z,55
2016-12-10T14:23:58.753Z,50
2016-12-10T14:24:58.736Z,50
2016-12-10T14:25:58.732Z,50